createdAt,value
2022-08-03T00:01:48.195Z,2.40
2022-08-03T00:04:14.701Z,2.80
2022-08-03T00:06:41.248Z,3.20
2022-08-03T00:09:07.765Z,2.80
2022-08-03T00:11:34.267Z,2.37
2022-08-03T00:14:00.841Z,2.87
2022-08-03T00:16:27.353Z,2.80
2022-08-03T00:18:53.875Z,2.73
2022-08-03T00:21:20.374Z,2.63
2022-08-03T00:23:51.146Z,2.50
2022-08-03T00:26:19.170Z,2.83
2022-08-03T00:28:45.690Z,2.80
2022-08-03T00:31:13.519Z,2.90
2022-08-03T00:33:59.702Z,2.77
2022-08-03T00:36:26.837Z,2.90
2022-08-03T00:38:53.370Z,2.63
2022-08-03T00:41:19.901Z,2.80
2022-08-03T00:43:46.409Z,2.50
2022-08-03T00:46:16.302Z,2.77
2022-08-03T00:48:45.669Z,3.23
2022-08-03T00:51:12.179Z,3.17
2022-08-03T00:53:38.721Z,2.73
2022-08-03T00:56:05.222Z,2.90
2022-08-03T00:58:31.726Z,2.90
2022-08-03T01:00:58.390Z,2.50
2022-08-03T01:03:24.944Z,3.00
2022-08-03T01:05:51.473Z,2.50
2022-08-03T01:08:17.969Z,2.40
2022-08-03T01:10:44.478Z,2.73
2022-08-03T01:13:59.115Z,2.43
2022-08-03T01:15:57.510Z,2.80
2022-08-03T01:18:24.028Z,2.90
2022-08-03T01:20:50.534Z,2.50
2022-08-03T01:23:17.039Z,2.60
2022-08-03T01:25:43.674Z,2.80
2022-08-03T01:28:10.234Z,2.60
2022-08-03T01:30:37.906Z,2.67
2022-08-03T01:33:04.934Z,2.80
2022-08-03T01:35:31.839Z,2.97
2022-08-03T01:37:58.390Z,2.80
2022-08-03T01:40:24.902Z,3.00
2022-08-03T01:42:51.451Z,2.37
2022-08-03T01:45:17.989Z,2.67
2022-08-03T01:47:44.494Z,2.70
2022-08-03T01:50:10.998Z,2.30
2022-08-03T01:52:37.555Z,2.37
2022-08-03T01:55:04.054Z,2.60
2022-08-03T01:57:30.568Z,2.73
2022-08-03T01:59:57.111Z,2.80
2022-08-03T02:02:33.312Z,2.60
2022-08-03T02:05:01.083Z,2.40
2022-08-03T02:07:27.593Z,2.60
2022-08-03T02:09:54.099Z,2.50
2022-08-03T02:12:20.629Z,2.70
2022-08-03T02:14:47.125Z,2.40
2022-08-03T02:17:13.622Z,2.50
2022-08-03T02:19:40.142Z,3.00
2022-08-03T02:22:06.665Z,2.67
2022-08-03T02:24:33.388Z,2.70
2022-08-03T02:26:59.892Z,2.37
2022-08-03T02:29:40.406Z,2.60
2022-08-03T02:32:07.440Z,2.33
2022-08-03T02:34:33.949Z,2.50
2022-08-03T02:37:00.517Z,2.23
2022-08-03T02:39:27.037Z,2.13
2022-08-03T02:41:53.529Z,2.50
2022-08-03T02:44:20.069Z,2.70
2022-08-03T02:46:46.591Z,2.50
2022-08-03T02:49:42.138Z,2.30
2022-08-03T02:51:59.632Z,2.20
2022-08-03T02:54:26.132Z,2.27
2022-08-03T02:56:52.688Z,2.23
2022-08-03T02:59:19.226Z,2.40
2022-08-03T03:01:45.745Z,2.50
2022-08-03T03:04:12.234Z,2.50
2022-08-03T03:06:39.561Z,2.63
2022-08-03T03:09:06.362Z,2.60
2022-08-03T03:11:32.909Z,2.30
2022-08-03T03:13:59.468Z,2.10
2022-08-03T03:16:25.995Z,2.53
2022-08-03T03:18:52.575Z,2.30
2022-08-03T03:21:19.079Z,2.17
2022-08-03T03:23:45.573Z,2.10
2022-08-03T03:26:12.101Z,2.40
2022-08-03T03:28:38.625Z,2.50
2022-08-03T03:31:05.181Z,2.10
2022-08-03T03:33:31.765Z,2.60
2022-08-03T03:35:58.275Z,2.30
2022-08-03T03:38:24.858Z,2.40
2022-08-03T03:40:51.471Z,2.13
2022-08-03T03:43:17.978Z,2.40
2022-08-03T03:45:44.533Z,2.40
2022-08-03T03:48:11.035Z,2.40
2022-08-03T03:50:37.562Z,2.30
2022-08-03T03:53:04.103Z,2.43
2022-08-03T03:55:30.668Z,2.30
2022-08-03T03:57:57.166Z,2.37
2022-08-03T04:00:23.689Z,2.10
2022-08-03T04:02:50.217Z,2.20
2022-08-03T04:05:16.717Z,1.90
2022-08-03T04:07:43.255Z,2.43
2022-08-03T04:10:14.577Z,2.20
2022-08-03T04:12:49.147Z,2.87
2022-08-03T04:15:17.180Z,2.60
2022-08-03T04:17:43.773Z,3.10
2022-08-03T04:20:10.310Z,3.20
2022-08-03T04:22:36.830Z,2.60
2022-08-03T04:25:03.389Z,2.80
2022-08-03T04:27:29.905Z,2.60
2022-08-03T04:29:56.434Z,2.50
2022-08-03T04:32:22.961Z,2.50
2022-08-03T04:34:49.496Z,2.27
2022-08-03T04:37:16.003Z,2.20
2022-08-03T04:39:42.504Z,2.30
2022-08-03T04:42:09.238Z,2.20
2022-08-03T04:44:35.840Z,2.17
2022-08-03T04:47:02.363Z,2.50
2022-08-03T04:49:29.015Z,2.13
2022-08-03T04:51:55.582Z,2.20
2022-08-03T04:54:22.162Z,2.30
2022-08-03T04:56:48.697Z,2.53
2022-08-03T04:59:15.217Z,2.80
2022-08-03T05:01:41.747Z,2.80
2022-08-03T05:04:08.386Z,3.03
2022-08-03T05:06:34.902Z,2.50
2022-08-03T05:09:01.895Z,2.00
2022-08-03T05:11:28.545Z,2.07
2022-08-03T05:13:55.061Z,2.53
2022-08-03T05:16:21.564Z,3.00
2022-08-03T05:18:50.562Z,3.03
2022-08-03T05:21:17.176Z,3.00
2022-08-03T05:23:43.680Z,2.50
2022-08-03T05:26:10.213Z,2.90
2022-08-03T05:28:36.719Z,2.77
2022-08-03T05:31:03.233Z,2.90
2022-08-03T05:33:29.774Z,3.30
2022-08-03T05:36:03.317Z,2.93
2022-08-03T05:38:34.206Z,3.27
2022-08-03T05:41:22.399Z,3.20
2022-08-03T05:43:48.539Z,2.80
2022-08-03T05:46:15.119Z,3.30
2022-08-03T05:48:41.631Z,3.00
2022-08-03T05:51:08.193Z,3.03
2022-08-03T05:53:34.708Z,3.27
2022-08-03T05:56:03.589Z,3.30
2022-08-03T05:58:42.276Z,3.33
2022-08-03T06:01:08.886Z,3.10
2022-08-03T06:03:35.458Z,3.20
2022-08-03T06:06:01.982Z,3.60
2022-08-03T06:08:28.504Z,3.50
2022-08-03T06:10:55.100Z,3.37
2022-08-03T06:13:21.598Z,3.53
2022-08-03T06:15:48.151Z,3.37
2022-08-03T06:18:14.778Z,3.40
2022-08-03T06:20:41.306Z,3.30
2022-08-03T06:23:08.242Z,3.00
2022-08-03T06:25:42.827Z,3.40
2022-08-03T06:28:12.134Z,3.43
2022-08-03T06:30:50.261Z,2.90
2022-08-03T06:33:16.828Z,2.80
2022-08-03T06:35:43.321Z,3.17
2022-08-03T06:38:11.774Z,3.20
2022-08-03T06:40:38.347Z,2.87
2022-08-03T06:43:06.112Z,2.83
2022-08-03T06:45:36.060Z,3.20
2022-08-03T06:48:02.614Z,3.00
2022-08-03T06:50:29.132Z,3.13
2022-08-03T06:52:55.712Z,3.03
2022-08-03T06:55:22.219Z,2.80
2022-08-03T06:57:48.732Z,2.87
2022-08-03T07:00:15.261Z,2.80
2022-08-03T07:02:41.841Z,2.70
2022-08-03T07:05:08.347Z,2.80
2022-08-03T07:07:34.956Z,2.50
2022-08-03T07:10:02.368Z,2.57
2022-08-03T07:12:29.451Z,2.67
2022-08-03T07:15:00.414Z,2.10
2022-08-03T07:17:28.106Z,2.13
2022-08-03T07:19:54.613Z,2.20
2022-08-03T07:22:21.144Z,2.03
2022-08-03T07:24:47.647Z,2.27
2022-08-03T07:27:14.190Z,2.10
2022-08-03T07:29:40.888Z,2.50
2022-08-03T07:32:07.439Z,1.90
2022-08-03T07:34:33.997Z,2.37
2022-08-03T07:37:00.521Z,1.63
2022-08-03T07:39:27.044Z,1.50
2022-08-03T07:41:53.586Z,1.80
2022-08-03T07:44:20.117Z,2.00
2022-08-03T07:46:46.720Z,1.83
2022-08-03T07:49:13.322Z,1.60
2022-08-03T07:51:39.907Z,1.50
2022-08-03T07:54:06.513Z,1.93
2022-08-03T07:56:33.910Z,1.70
2022-08-03T07:59:00.442Z,1.67
2022-08-03T08:01:27.055Z,1.70
2022-08-03T08:03:53.868Z,1.50
2022-08-03T08:06:20.436Z,1.60
2022-08-03T08:08:46.985Z,1.57
2022-08-03T08:11:13.500Z,1.70
2022-08-03T08:13:40.005Z,1.77
2022-08-03T08:16:06.506Z,1.77
2022-08-03T08:18:33.034Z,1.67
2022-08-03T08:20:59.530Z,1.70
2022-08-03T08:23:42.885Z,1.50
2022-08-03T08:26:10.803Z,1.80
2022-08-03T08:28:37.361Z,1.80
2022-08-03T08:31:03.930Z,1.73
2022-08-03T08:33:48.017Z,1.70
2022-08-03T08:36:16.970Z,1.60
2022-08-03T08:38:43.485Z,1.87
2022-08-03T08:41:09.977Z,1.67
2022-08-03T08:43:36.502Z,1.50
2022-08-03T08:46:03.004Z,1.60
2022-08-03T08:48:29.498Z,1.70
2022-08-03T08:50:56.070Z,1.50
2022-08-03T08:53:27.313Z,1.30
2022-08-03T08:56:00.146Z,1.57
2022-08-03T08:58:27.142Z,1.50
2022-08-03T09:00:53.690Z,1.60
2022-08-03T09:03:22.635Z,1.20
2022-08-03T09:05:57.097Z,1.30
2022-08-03T09:08:23.671Z,1.20
2022-08-03T09:10:50.172Z,1.57
2022-08-03T09:13:16.771Z,1.53
2022-08-03T09:16:00.631Z,1.40
2022-08-03T09:18:27.930Z,1.30
2022-08-03T09:21:03.811Z,1.10
2022-08-03T09:24:01.630Z,1.40
2022-08-03T09:26:29.662Z,1.10
2022-08-03T09:29:01.720Z,1.10
2022-08-03T09:31:30.510Z,1.20
2022-08-03T09:33:57.034Z,1.10
2022-08-03T09:36:23.549Z,0.83
2022-08-03T09:38:50.321Z,1.10
2022-08-03T09:41:16.886Z,1.10
2022-08-03T09:43:43.404Z,0.90
2022-08-03T09:46:09.897Z,1.43
2022-08-03T09:48:36.429Z,1.20
2022-08-03T09:51:12.511Z,1.30
2022-08-03T09:53:42.075Z,1.30
2022-08-03T09:56:36.451Z,1.40
2022-08-03T09:59:03.556Z,1.47
2022-08-03T10:01:30.210Z,1.10
2022-08-03T10:04:04.322Z,0.97
2022-08-03T10:06:34.277Z,0.97
2022-08-03T10:09:00.774Z,1.00
2022-08-03T10:11:27.285Z,1.30
2022-08-03T10:14:01.137Z,1.20
2022-08-03T10:16:28.259Z,1.03
2022-08-03T10:18:54.810Z,0.90
2022-08-03T10:21:21.326Z,0.90
2022-08-03T10:23:47.847Z,1.20
2022-08-03T10:26:14.361Z,0.90
2022-08-03T10:28:45.076Z,1.00
2022-08-03T10:31:12.100Z,0.80
2022-08-03T10:33:51.197Z,1.00
2022-08-03T10:36:19.189Z,1.10
2022-08-03T10:38:45.698Z,1.00
2022-08-03T10:41:12.197Z,0.97
2022-08-03T10:43:38.788Z,0.97
2022-08-03T10:46:05.284Z,1.30
2022-08-03T10:48:31.781Z,1.20
2022-08-03T10:50:58.352Z,0.90
2022-08-03T10:53:25.001Z,1.20
2022-08-03T10:55:51.893Z,1.10
2022-08-03T10:58:25.202Z,1.20
2022-08-03T11:00:57.277Z,1.40
2022-08-03T11:03:23.859Z,1.20
2022-08-03T11:05:50.404Z,1.10
2022-08-03T11:08:17.504Z,1.20
2022-08-03T11:10:44.010Z,1.20
2022-08-03T11:13:10.506Z,1.20
2022-08-03T11:15:38.341Z,1.07
2022-08-03T11:18:04.879Z,1.10
2022-08-03T11:20:33.729Z,1.10
2022-08-03T11:23:00.298Z,1.13
2022-08-03T11:25:53.737Z,1.10
2022-08-03T11:28:13.348Z,1.10
2022-08-03T11:30:41.299Z,1.10
2022-08-03T11:33:07.809Z,0.97
2022-08-03T11:35:34.350Z,1.20
2022-08-03T11:38:03.084Z,1.20
2022-08-03T11:40:31.667Z,1.00
2022-08-03T11:42:58.189Z,1.00
2022-08-03T11:45:24.705Z,1.07
2022-08-03T11:47:51.611Z,1.00
2022-08-03T11:50:18.190Z,1.53
2022-08-03T11:52:44.689Z,1.03
2022-08-03T11:55:11.204Z,1.00
2022-08-03T11:59:16.499Z,1.30
2022-08-03T12:00:24.223Z,1.30
2022-08-03T12:02:52.721Z,1.20
2022-08-03T12:05:19.261Z,1.30
2022-08-03T12:08:03.995Z,1.03
2022-08-03T12:10:32.294Z,1.00
2022-08-03T12:12:58.825Z,1.20
2022-08-03T12:15:25.355Z,1.17
2022-08-03T12:17:54.819Z,1.13
2022-08-03T12:20:34.858Z,1.10
2022-08-03T12:23:01.836Z,1.63
2022-08-03T12:25:39.069Z,1.40
2022-08-03T12:28:06.470Z,1.00
2022-08-03T12:30:52.973Z,1.13
2022-08-03T12:33:19.506Z,1.10
2022-08-03T12:35:52.282Z,1.10
2022-08-03T12:38:19.866Z,0.97
2022-08-03T12:40:46.386Z,0.90
2022-08-03T12:43:12.893Z,1.00
2022-08-03T12:45:39.419Z,0.80
2022-08-03T12:48:05.946Z,1.07
2022-08-03T12:50:32.520Z,0.90
2022-08-03T12:52:59.130Z,0.93
2022-08-03T12:55:25.632Z,0.90
2022-08-03T12:57:52.135Z,0.87
2022-08-03T13:00:21.760Z,0.87
2022-08-03T13:03:26.618Z,0.90
2022-08-03T13:05:42.729Z,0.93
2022-08-03T13:08:09.250Z,0.97
2022-08-03T13:10:38.128Z,0.63
2022-08-03T13:13:04.677Z,0.80
2022-08-03T13:15:38.626Z,0.90
2022-08-03T13:18:14.423Z,0.83
2022-08-03T13:20:43.930Z,1.00
2022-08-03T13:23:15.354Z,1.20
2022-08-03T13:25:55.082Z,0.90
2022-08-03T13:28:22.526Z,1.53
2022-08-03T13:30:49.065Z,1.00
2022-08-03T13:33:15.564Z,0.77
2022-08-03T13:35:42.079Z,0.93
2022-08-03T13:38:08.709Z,0.80
2022-08-03T13:40:41.507Z,0.87
2022-08-03T13:43:08.437Z,0.77
2022-08-03T13:45:34.964Z,0.80
2022-08-03T13:48:01.459Z,1.00
2022-08-03T13:50:27.961Z,0.90
2022-08-03T13:52:54.484Z,0.80
2022-08-03T13:55:21.003Z,1.00
2022-08-03T13:58:02.670Z,0.60
2022-08-03T14:00:33.514Z,0.83
2022-08-03T14:03:13.886Z,0.70
2022-08-03T14:05:41.015Z,3.90
2022-08-03T14:08:07.565Z,1.17
2022-08-03T14:10:34.144Z,1.33
2022-08-03T14:13:00.712Z,2.07
2022-08-03T14:15:27.238Z,1.37
2022-08-03T14:17:53.771Z,0.80
2022-08-03T14:20:38.443Z,0.70
2022-08-03T14:23:05.623Z,0.80
2022-08-03T14:25:32.274Z,0.80
2022-08-03T14:28:11.028Z,0.80
2022-08-03T15:23:23.486Z,0.80
2022-08-03T15:26:30.524Z,0.80
2022-08-03T15:30:05.678Z,1.00
2022-08-03T15:32:23.933Z,0.80
2022-08-03T15:35:10.777Z,0.80
2022-08-03T15:37:57.631Z,1.00
2022-08-03T15:40:44.463Z,0.90
2022-08-03T15:43:31.314Z,1.07
2022-08-03T15:46:33.552Z,0.83
2022-08-03T15:49:20.384Z,0.90
2022-08-03T15:52:07.214Z,1.20
2022-08-03T15:54:54.046Z,1.20
2022-08-03T15:59:03.690Z,1.00
2022-08-03T16:00:47.676Z,0.90
2022-08-03T16:03:34.516Z,1.00
2022-08-03T16:06:29.890Z,0.90
2022-08-03T16:09:23.712Z,0.80
2022-08-03T16:12:29.455Z,0.97
2022-08-03T16:15:16.338Z,1.00
2022-08-03T16:18:03.166Z,1.40
2022-08-03T16:20:50.010Z,1.10
2022-08-03T16:23:36.828Z,1.10
2022-08-03T16:26:24.842Z,1.00
2022-08-03T16:29:23.188Z,0.93
2022-08-03T16:32:10.574Z,1.00
2022-08-03T16:34:57.400Z,1.10
2022-08-03T16:37:54.648Z,1.00
2022-08-03T16:40:43.502Z,1.00
2022-08-03T16:43:30.368Z,0.93
2022-08-03T16:46:17.206Z,0.77
2022-08-03T16:49:04.066Z,0.90
2022-08-03T16:51:51.143Z,0.90
2022-08-03T16:54:38.146Z,0.90
2022-08-03T16:57:55.855Z,1.63
2022-08-03T17:00:34.299Z,1.70
2022-08-03T17:03:27.953Z,1.53
2022-08-03T17:06:34.159Z,1.70
2022-08-03T17:09:21.650Z,1.47
2022-08-03T17:12:10.885Z,1.70
2022-08-03T17:14:57.907Z,1.00
2022-08-03T17:17:53.377Z,1.20
2022-08-03T17:20:40.769Z,1.03
2022-08-03T17:23:35.383Z,1.40
2022-08-03T17:26:22.649Z,1.30
2022-08-03T17:29:17.287Z,1.23
2022-08-03T17:32:09.224Z,1.00
2022-08-03T17:34:56.987Z,1.13
2022-08-03T17:37:57.557Z,1.20
2022-08-03T17:40:49.983Z,1.30
2022-08-03T17:44:12.981Z,1.70
2022-08-03T17:46:45.510Z,1.27
2022-08-03T17:49:39.835Z,1.20
2022-08-03T17:52:27.150Z,1.10
2022-08-03T17:55:57.042Z,1.10
2022-08-03T17:58:20.942Z,1.13
2022-08-03T18:02:00.479Z,1.30
2022-08-03T18:04:14.668Z,1.13
2022-08-03T18:07:11.591Z,1.60
2022-08-03T18:10:04.495Z,1.13
2022-08-03T18:12:52.339Z,1.30
2022-08-03T18:15:40.273Z,1.37
2022-08-03T18:18:29.339Z,1.57
2022-08-03T18:21:19.618Z,1.43
2022-08-03T18:24:06.443Z,1.40
2022-08-03T18:26:56.698Z,1.30
2022-08-03T18:29:44.041Z,1.63
2022-08-03T18:32:30.902Z,1.33
2022-08-03T18:35:19.646Z,1.57
2022-08-03T18:38:11.615Z,1.23
2022-08-03T18:41:12.696Z,1.57
2022-08-03T18:44:08.449Z,2.30
2022-08-03T18:47:16.801Z,1.87
2022-08-03T18:50:03.867Z,1.57
2022-08-03T18:52:53.382Z,1.60
2022-08-03T18:55:40.357Z,1.70
2022-08-03T18:58:47.181Z,1.73
2022-08-03T19:01:59.115Z,1.40
2022-08-03T19:04:45.846Z,1.63
2022-08-03T19:07:35.919Z,1.70
2022-08-03T19:10:23.050Z,1.70
2022-08-03T19:13:11.493Z,1.80
2022-08-03T19:15:51.111Z,1.70
2022-08-03T19:18:18.236Z,1.80
2022-08-03T19:20:46.799Z,1.70
2022-08-03T19:23:13.448Z,1.90
2022-08-03T19:25:40.630Z,1.80
2022-08-03T19:28:08.021Z,1.87
2022-08-03T19:30:34.536Z,1.90
2022-08-03T19:33:01.062Z,1.90
2022-08-03T19:35:51.883Z,1.80
2022-08-03T19:38:14.059Z,1.80
2022-08-03T19:40:50.946Z,1.97
2022-08-03T19:43:17.742Z,1.73
2022-08-03T19:46:04.786Z,2.13
2022-08-03T19:48:30.769Z,1.90
2022-08-03T19:50:57.355Z,2.10
2022-08-03T19:53:35.208Z,1.70
2022-08-03T19:56:02.497Z,2.00
2022-08-03T19:58:29.005Z,2.20
2022-08-03T20:00:55.926Z,1.80
2022-08-03T20:03:23.380Z,1.90
2022-08-03T20:05:52.173Z,2.20
2022-08-03T20:08:20.767Z,2.07
2022-08-03T20:10:47.270Z,2.10
2022-08-03T20:13:14.490Z,2.03
2022-08-03T20:15:45.958Z,2.00
2022-08-03T20:18:16.771Z,2.40
2022-08-03T20:20:43.630Z,2.40
2022-08-03T20:23:10.142Z,2.10
2022-08-03T20:25:39.003Z,2.40
2022-08-03T20:28:08.087Z,2.20
2022-08-03T20:30:42.528Z,2.70
2022-08-03T20:33:09.688Z,2.30
2022-08-03T20:35:36.210Z,2.30
2022-08-03T20:38:03.151Z,2.60
2022-08-03T20:40:29.718Z,2.83
2022-08-03T20:42:56.227Z,2.57
2022-08-03T20:45:59.604Z,2.70
2022-08-03T20:48:09.226Z,2.70
2022-08-03T20:50:35.743Z,2.63
2022-08-03T20:53:02.581Z,2.67
2022-08-03T20:55:47.993Z,2.70
2022-08-03T20:58:15.897Z,2.90
2022-08-03T21:00:43.175Z,2.70
2022-08-03T21:03:09.769Z,2.57
2022-08-03T21:05:51.166Z,2.90
2022-08-03T21:08:19.889Z,2.70
2022-08-03T21:10:46.422Z,2.67
2022-08-03T21:13:17.764Z,3.07
2022-08-03T21:16:06.469Z,2.77
2022-08-03T21:18:31.369Z,2.80
2022-08-03T21:20:58.270Z,2.80
2022-08-03T21:23:35.088Z,3.07
2022-08-03T21:26:08.049Z,3.20
2022-08-03T21:28:34.548Z,2.80
2022-08-03T21:31:01.056Z,2.87
2022-08-03T21:33:27.553Z,2.90
2022-08-03T21:35:54.049Z,3.23
2022-08-03T21:38:20.563Z,3.10
2022-08-03T21:40:56.090Z,3.10
2022-08-03T21:43:22.633Z,3.43
2022-08-03T21:45:49.132Z,3.20
2022-08-03T21:48:15.667Z,3.50
2022-08-03T21:50:42.165Z,3.60
2022-08-03T21:53:08.666Z,2.60
2022-08-03T21:55:35.177Z,2.90
2022-08-03T21:58:01.790Z,3.07
2022-08-03T22:00:28.316Z,3.30
2022-08-03T22:02:55.425Z,3.43
2022-08-03T22:05:28.919Z,3.83
2022-08-03T22:08:08.610Z,3.60
2022-08-03T22:10:35.114Z,4.00
2022-08-03T22:13:01.610Z,4.03
2022-08-03T22:15:28.137Z,3.67
2022-08-03T22:17:57.149Z,3.43
2022-08-03T22:20:24.009Z,3.90
2022-08-03T22:22:55.381Z,4.00
2022-08-03T22:25:22.684Z,4.23
2022-08-03T22:27:49.210Z,4.30
2022-08-03T22:30:15.711Z,4.40
2022-08-03T22:32:42.210Z,3.80
2022-08-03T22:35:08.740Z,4.20
2022-08-03T22:37:35.270Z,4.23
2022-08-03T22:40:01.786Z,4.13
2022-08-03T22:42:28.287Z,4.40
2022-08-03T22:44:54.825Z,3.93
2022-08-03T22:47:21.326Z,4.37
2022-08-03T22:49:49.572Z,4.53
2022-08-03T22:52:36.225Z,4.50
2022-08-03T22:55:02.727Z,3.90
2022-08-03T22:57:29.225Z,3.77
2022-08-03T22:59:55.818Z,3.93
2022-08-03T23:02:22.327Z,3.80
2022-08-03T23:04:48.843Z,4.17
2022-08-03T23:07:15.343Z,3.57
2022-08-03T23:09:41.846Z,3.57
2022-08-03T23:12:08.380Z,3.50
2022-08-03T23:14:34.879Z,3.27
2022-08-03T23:17:01.384Z,3.67
2022-08-03T23:19:30.269Z,3.10
2022-08-03T23:22:03.379Z,2.90
2022-08-03T23:24:30.578Z,3.17
2022-08-03T23:26:57.144Z,3.50
2022-08-03T23:29:23.670Z,3.50
2022-08-03T23:31:50.190Z,3.20
2022-08-03T23:34:16.936Z,3.43
2022-08-03T23:36:43.502Z,3.40
2022-08-03T23:39:10.175Z,3.33
2022-08-03T23:41:36.703Z,3.30
2022-08-03T23:44:03.669Z,3.27
2022-08-03T23:46:30.323Z,3.23
2022-08-03T23:48:56.868Z,3.53
2022-08-03T23:51:23.369Z,3.47
2022-08-03T23:53:49.899Z,3.60
2022-08-03T23:56:16.397Z,3.77
2022-08-03T23:58:42.897Z,3.43
